createdAt,value
2018-02-06T00:00:55.473Z,20.97
2018-02-06T00:03:24.730Z,19.43
2018-02-06T00:05:52.974Z,18.70
2018-02-06T00:08:21.242Z,18.23
2018-02-06T00:10:49.494Z,19.70
2018-02-06T00:13:17.736Z,18.97
2018-02-06T00:15:46.299Z,18.27
2018-02-06T00:18:14.545Z,18.90
2018-02-06T00:20:43.994Z,19.50
2018-02-06T00:23:12.264Z,19.87
2018-02-06T00:25:40.521Z,20.40
2018-02-06T00:28:08.761Z,19.30
2018-02-06T00:30:37.033Z,20.00
2018-02-06T00:33:06.041Z,19.43
2018-02-06T00:35:34.298Z,19.90
2018-02-06T00:38:04.657Z,19.17
2018-02-06T00:40:32.905Z,21.17
2018-02-06T00:43:01.913Z,18.77
2018-02-06T00:45:30.185Z,19.00
2018-02-06T00:47:58.436Z,19.30
2018-02-06T00:50:26.684Z,19.50
2018-02-06T00:52:55.405Z,19.53
2018-02-06T00:55:24.422Z,19.00
2018-02-06T00:57:52.661Z,19.50
2018-02-06T01:00:21.208Z,18.37
2018-02-06T01:02:49.453Z,22.17
2018-02-06T01:05:17.693Z,18.70
2018-02-06T01:07:48.140Z,19.70
2018-02-06T01:10:17.149Z,21.30
2018-02-06T01:12:46.165Z,17.53
2018-02-06T01:15:14.437Z,18.70
2018-02-06T01:17:42.689Z,17.30
2018-02-06T01:20:11.701Z,17.80
2018-02-06T01:22:40.313Z,19.50
2018-02-06T01:25:08.561Z,18.97
2018-02-06T01:27:36.806Z,18.13
2018-02-06T01:30:05.232Z,19.17
2018-02-06T01:32:33.477Z,18.13
2018-02-06T01:35:02.497Z,21.03
2018-02-06T01:37:30.774Z,18.00
2018-02-06T01:39:59.025Z,20.17
2018-02-06T01:42:28.034Z,19.10
2018-02-06T01:44:56.370Z,19.27
2018-02-06T01:47:24.617Z,19.17
2018-02-06T01:50:06.666Z,18.50
2018-02-06T01:52:35.706Z,20.00
2018-02-06T01:55:04.257Z,19.03
2018-02-06T01:57:32.533Z,18.40
2018-02-06T02:00:00.777Z,18.00
2018-02-06T02:02:29.033Z,18.37
2018-02-06T02:04:57.370Z,19.20
2018-02-06T02:07:25.618Z,18.77
2018-02-06T02:09:53.866Z,19.40
2018-02-06T02:12:22.282Z,19.97
2018-02-06T02:14:51.306Z,20.20
2018-02-06T02:17:19.550Z,19.57
2018-02-06T02:19:47.818Z,19.87
2018-02-06T02:22:16.061Z,18.43
2018-02-06T02:24:44.314Z,18.50
2018-02-06T02:27:12.761Z,19.60
2018-02-06T02:29:41.006Z,19.20
2018-02-06T02:32:09.249Z,17.90
2018-02-06T02:34:37.529Z,19.17
2018-02-06T02:37:06.971Z,17.87
2018-02-06T02:39:35.222Z,17.90
2018-02-06T04:40:44.813Z,17.43
2018-02-06T04:43:13.068Z,16.37
2018-02-06T04:45:41.321Z,18.57
2018-02-06T04:48:09.589Z,19.00
2018-02-06T04:50:37.833Z,17.50
2018-02-06T04:53:06.081Z,17.90
2018-02-06T04:55:34.349Z,17.30
2018-02-06T04:58:02.597Z,19.60
2018-02-06T05:00:31.157Z,18.90
2018-02-06T05:03:00.512Z,17.23
2018-02-06T05:05:28.845Z,18.00
2018-02-06T05:07:57.857Z,17.60
2018-02-06T05:10:26.156Z,18.20
2018-02-06T05:12:54.389Z,19.40
2018-02-06T05:15:22.824Z,16.97
2018-02-06T05:17:51.069Z,17.10
2018-02-06T05:20:19.417Z,17.33
2018-02-06T05:22:48.433Z,17.13
2018-02-06T05:25:17.140Z,18.20
2018-02-06T05:27:45.381Z,17.90
2018-02-06T05:30:13.673Z,15.80
2018-02-06T05:32:42.031Z,18.20
2018-02-06T05:35:10.260Z,17.80
2018-02-06T05:37:38.505Z,19.60
2018-02-06T05:40:06.777Z,16.83
2018-02-06T05:42:35.021Z,18.17
2018-02-06T05:45:03.373Z,17.40
2018-02-06T05:47:32.263Z,17.90
2018-02-06T05:50:00.543Z,18.00
2018-02-06T05:52:28.761Z,18.43
2018-02-06T05:54:57.197Z,15.93
2018-02-06T05:57:25.577Z,16.43
2018-02-06T05:59:53.801Z,15.30
2018-02-06T06:02:23.361Z,17.90
2018-02-06T06:04:51.620Z,17.50
2018-02-06T06:07:19.884Z,16.77
2018-02-06T06:09:48.205Z,16.40
2018-02-06T06:12:16.453Z,16.20
2018-02-06T06:14:44.702Z,17.50
2018-02-06T06:17:13.246Z,18.00
2018-02-06T06:19:41.485Z,17.00
2018-02-06T06:22:09.737Z,16.07
2018-02-06T06:24:38.001Z,17.00
2018-02-06T06:27:07.020Z,19.17
2018-02-06T06:29:35.265Z,17.27
2018-02-06T06:32:04.367Z,16.77
2018-02-06T06:34:32.609Z,16.00
2018-02-06T06:37:00.857Z,16.53
2018-02-06T06:39:29.121Z,17.77
2018-02-06T06:41:57.370Z,18.00
2018-02-06T06:44:25.609Z,16.10
2018-02-06T06:46:53.882Z,16.53
2018-02-06T06:49:22.125Z,16.90
2018-02-06T06:51:50.373Z,16.83
2018-02-06T06:54:21.035Z,15.80
2018-02-06T06:56:49.262Z,17.17
2018-02-06T06:59:17.515Z,17.87
2018-02-06T07:01:45.894Z,16.07
2018-02-06T07:04:14.221Z,17.03
2018-02-06T07:06:43.229Z,16.60
2018-02-06T07:09:11.546Z,16.50
2018-02-06T07:11:39.785Z,16.30
2018-02-06T07:14:08.041Z,18.63
2018-02-06T07:16:37.585Z,14.60
2018-02-06T07:19:05.834Z,17.83
2018-02-06T07:21:34.270Z,17.30
2018-02-06T07:24:02.546Z,16.10
2018-02-06T07:26:30.800Z,16.63
2018-02-06T07:28:59.043Z,16.90
2018-02-06T07:31:27.306Z,16.23
2018-02-06T07:33:55.549Z,16.83
2018-02-06T07:36:23.801Z,16.37
2018-02-06T07:38:52.389Z,16.70
2018-02-06T07:41:20.637Z,14.57
2018-02-06T07:43:48.877Z,17.30
2018-02-06T07:46:17.150Z,16.47
2018-02-06T07:48:45.389Z,16.80
2018-02-06T07:51:13.642Z,16.30
2018-02-06T07:53:41.910Z,14.80
2018-02-06T07:56:10.162Z,15.60
2018-02-06T07:58:38.407Z,16.97
2018-02-06T08:01:07.182Z,18.73
2018-02-06T08:03:35.427Z,16.97
2018-02-06T08:06:03.966Z,16.37
2018-02-06T08:08:32.231Z,16.47
2018-02-06T08:11:00.482Z,16.77
2018-02-06T08:13:28.742Z,15.53
2018-02-06T08:15:57.110Z,16.23
2018-02-06T08:18:26.122Z,17.60
2018-02-06T08:20:54.364Z,17.73
2018-02-06T08:23:22.787Z,16.57
2018-02-06T08:25:51.037Z,17.20
2018-02-06T08:28:20.049Z,15.80
2018-02-06T08:30:48.318Z,15.03
2018-02-06T08:33:16.557Z,17.40
2018-02-06T08:35:44.803Z,18.03
2018-02-06T08:38:13.072Z,20.87
2018-02-06T08:40:41.318Z,21.40
2018-02-06T08:43:10.330Z,21.03
2018-02-06T08:45:38.664Z,19.60
2018-02-06T08:48:06.918Z,17.50
2018-02-06T08:50:35.172Z,21.73
2018-02-06T08:53:03.438Z,19.53
2018-02-06T08:55:31.901Z,18.23
2018-02-06T08:58:00.141Z,20.70
2018-02-06T09:00:28.418Z,14.70
2018-02-06T09:02:56.664Z,15.60
2018-02-06T09:05:24.905Z,16.53
2018-02-06T09:07:53.546Z,18.70
2018-02-06T09:10:21.794Z,17.73
2018-02-06T09:12:50.046Z,18.83
2018-02-06T09:15:21.278Z,17.33
2018-02-06T09:17:50.294Z,16.50
2018-02-06T09:20:18.538Z,17.30
2018-02-06T09:22:46.805Z,16.43
2018-02-06T09:25:15.062Z,18.93
2018-02-06T09:27:43.310Z,18.03
2018-02-06T09:30:12.217Z,22.87
2018-02-06T09:32:40.468Z,22.87
2018-02-06T09:35:08.788Z,16.17
2018-02-06T09:37:38.221Z,19.00
2018-02-06T09:40:07.234Z,17.03
2018-02-06T09:42:36.244Z,16.97
2018-02-06T09:45:04.513Z,17.97
2018-02-06T09:47:32.766Z,19.57
2018-02-06T09:50:01.014Z,16.40
2018-02-06T09:52:29.786Z,16.47
2018-02-06T09:54:58.033Z,17.20
2018-02-06T09:57:26.282Z,16.77
2018-02-06T09:59:54.550Z,21.13
2018-02-06T10:02:22.803Z,15.50
2018-02-06T10:04:51.080Z,16.70
2018-02-06T10:07:19.317Z,17.17
2018-02-06T10:09:48.089Z,18.60
2018-02-06T10:12:17.094Z,16.30
2018-02-06T10:14:45.813Z,15.70
2018-02-06T10:17:14.061Z,16.50
2018-02-06T10:19:42.305Z,16.97
2018-02-06T10:22:10.569Z,16.77
2018-02-06T10:24:38.813Z,17.20
2018-02-06T10:27:07.061Z,16.97
2018-02-06T10:29:36.084Z,18.70
2018-02-06T10:32:04.381Z,16.60
2018-02-06T10:34:32.620Z,18.60
2018-02-06T10:37:01.216Z,17.10
2018-02-06T10:39:29.471Z,17.47
2018-02-06T10:41:57.720Z,16.00
2018-02-06T10:44:25.989Z,18.67
2018-02-06T10:46:54.240Z,17.43
2018-02-06T10:49:22.484Z,16.87
2018-02-06T10:51:50.826Z,16.87
2018-02-06T10:54:19.837Z,20.00
2018-02-06T10:56:48.841Z,16.60
2018-02-06T10:59:17.221Z,16.33
2018-02-06T11:01:45.469Z,17.73
2018-02-06T11:04:13.737Z,19.50
2018-02-06T11:06:42.001Z,17.50
2018-02-06T11:09:10.253Z,17.53
2018-02-06T11:11:38.548Z,19.10
2018-02-06T11:14:07.074Z,19.10
2018-02-06T11:16:35.306Z,19.10
2018-02-06T11:19:03.548Z,18.40
2018-02-06T11:21:32.351Z,20.67
2018-02-06T11:24:00.599Z,17.90
2018-02-06T11:26:28.904Z,17.87
2018-02-06T11:28:57.173Z,17.40
2018-02-06T11:31:25.457Z,18.07
2018-02-06T11:33:53.713Z,26.43
2018-02-06T11:36:22.133Z,18.83
2018-02-06T11:38:50.357Z,19.87
2018-02-06T11:41:18.617Z,22.60
2018-02-06T11:43:47.173Z,19.73
2018-02-06T11:46:15.472Z,20.20
2018-02-06T11:48:43.930Z,21.33
2018-02-06T11:51:12.242Z,19.90
2018-02-06T11:53:40.433Z,19.00
2018-02-06T11:56:08.680Z,20.63
2018-02-06T11:58:36.943Z,19.00
2018-02-06T12:01:05.190Z,17.93
2018-02-06T12:03:33.430Z,19.07
2018-02-06T12:06:01.808Z,18.30
2018-02-06T12:08:30.029Z,21.40
2018-02-06T12:10:58.273Z,20.77
2018-02-06T12:13:26.761Z,19.70
2018-02-06T12:15:55.005Z,19.20
2018-02-06T12:18:23.289Z,16.87
2018-02-06T12:20:51.549Z,20.23
2018-02-06T12:23:19.788Z,18.67
2018-02-06T12:25:48.182Z,18.90
2018-02-06T12:28:16.563Z,19.63
2018-02-06T12:30:44.789Z,18.87
2018-02-06T12:33:13.801Z,19.30
2018-02-06T12:35:42.084Z,21.17
2018-02-06T12:38:10.325Z,20.27
2018-02-06T12:40:38.565Z,19.93
2018-02-06T12:43:06.832Z,18.93
2018-02-06T12:45:35.104Z,19.00
2018-02-06T12:48:03.334Z,20.33
2018-02-06T12:50:31.849Z,18.80
2018-02-06T12:53:00.801Z,20.30
2018-02-06T12:55:30.026Z,18.20
2018-02-06T12:57:58.296Z,19.30
2018-02-06T13:00:26.727Z,19.90
2018-02-06T13:02:54.962Z,19.80
2018-02-06T13:05:23.225Z,19.33
2018-02-06T13:07:51.468Z,20.63
2018-02-06T13:10:19.711Z,18.43
2018-02-06T13:12:48.189Z,19.67
2018-02-06T13:15:16.841Z,20.80
2018-02-06T13:17:45.990Z,19.10
2018-02-06T13:20:14.247Z,19.20
2018-02-06T13:22:42.497Z,20.03
2018-02-06T13:25:10.729Z,19.97
2018-02-06T13:27:38.997Z,21.47
2018-02-06T13:30:07.236Z,18.27
2018-02-06T13:32:35.491Z,19.97
2018-02-06T13:35:04.834Z,19.10
2018-02-06T13:37:33.076Z,21.20
2018-02-06T13:40:01.325Z,19.77
2018-02-06T13:42:29.597Z,20.67
2018-02-06T13:44:57.840Z,19.67
2018-02-06T13:47:26.085Z,20.27
2018-02-06T13:49:54.352Z,18.47
2018-02-06T13:52:22.601Z,19.43
2018-02-06T13:54:50.845Z,19.90
2018-02-06T13:57:19.328Z,20.80
2018-02-06T13:59:47.571Z,19.07
2018-02-06T14:02:15.826Z,20.73
2018-02-06T14:04:44.866Z,19.00
2018-02-06T14:07:13.121Z,19.10
2018-02-06T14:09:41.369Z,21.50
2018-02-06T14:12:09.643Z,18.57
2018-02-06T14:14:37.879Z,20.13
2018-02-06T14:17:06.157Z,18.43
2018-02-06T14:19:34.740Z,18.40
2018-02-06T14:22:02.989Z,18.87
2018-02-06T14:24:31.237Z,19.87
2018-02-06T14:26:59.514Z,19.80
2018-02-06T14:29:28.536Z,18.43
2018-02-06T14:31:56.786Z,18.90
2018-02-06T14:34:25.058Z,18.87
2018-02-06T14:36:53.311Z,19.03
2018-02-06T14:39:21.561Z,20.07
2018-02-06T14:41:50.153Z,20.73
2018-02-06T14:44:18.402Z,20.67
2018-02-06T14:46:46.649Z,17.53
2018-02-06T14:49:14.917Z,21.33
2018-02-06T14:51:43.174Z,17.90
2018-02-06T14:54:12.199Z,18.87
2018-02-06T14:56:40.681Z,18.93
2018-02-06T14:59:09.694Z,20.30
2018-02-06T15:01:37.942Z,20.67
2018-02-06T15:04:06.280Z,18.70
2018-02-06T15:06:34.526Z,19.10
2018-02-06T15:09:02.849Z,18.87
2018-02-06T15:11:31.097Z,18.80
2018-02-06T15:13:59.345Z,19.70
2018-02-06T15:16:28.361Z,18.87
2018-02-06T15:18:57.353Z,20.97
2018-02-06T15:21:25.598Z,18.37
2018-02-06T15:23:53.841Z,19.33
2018-02-06T15:26:22.265Z,19.40
2018-02-06T15:28:50.521Z,19.80
2018-02-06T15:31:18.778Z,18.30
2018-02-06T15:33:47.052Z,19.90
2018-02-06T15:36:15.300Z,20.90
2018-02-06T15:38:43.550Z,19.00
2018-02-06T15:41:11.830Z,20.07
2018-02-06T15:43:40.833Z,18.20
2018-02-06T15:46:09.085Z,20.37
2018-02-06T15:48:37.924Z,18.67
2018-02-06T15:51:06.173Z,20.20
2018-02-06T15:53:34.418Z,19.17
2018-02-06T15:56:02.758Z,20.23
2018-02-06T15:58:30.950Z,18.00
2018-02-06T16:01:09.125Z,18.37
2018-02-06T16:03:37.373Z,18.63
2018-02-06T16:06:07.565Z,17.50
2018-02-06T16:08:35.919Z,19.77
2018-02-06T16:11:04.161Z,18.90
2018-02-06T16:13:32.418Z,19.63
2018-02-06T16:16:00.693Z,19.47
2018-02-06T16:18:28.942Z,18.80
2018-02-06T16:20:57.201Z,19.03
2018-02-06T16:23:25.479Z,17.80
2018-02-06T16:25:54.905Z,17.10
2018-02-06T16:28:23.158Z,17.63
2018-02-06T16:30:51.486Z,18.47
2018-02-06T16:33:19.740Z,19.00
2018-02-06T16:35:47.991Z,20.10
2018-02-06T16:38:16.250Z,19.40
2018-02-06T16:40:44.525Z,18.50
2018-02-06T16:43:12.945Z,18.00
2018-02-06T16:45:41.225Z,17.87
2018-02-06T16:48:09.477Z,18.20
2018-02-06T16:50:37.725Z,19.37
2018-02-06T16:53:06.232Z,20.50
2018-02-06T16:55:34.478Z,16.77
2018-02-06T16:58:02.917Z,19.73
2018-02-06T17:00:35.010Z,19.50
2018-02-06T17:03:04.281Z,16.43
2018-02-06T17:05:33.617Z,18.60
2018-02-06T17:08:02.701Z,17.83
2018-02-06T17:10:30.946Z,18.03
2018-02-06T17:12:59.337Z,17.90
2018-02-06T17:15:28.765Z,19.30
2018-02-06T17:17:58.733Z,19.40
2018-02-06T17:20:26.988Z,17.63
2018-02-06T17:22:55.337Z,17.40
2018-02-06T17:25:24.361Z,18.47
2018-02-06T17:27:52.619Z,20.00
2018-02-06T17:30:20.881Z,19.50
2018-02-06T17:32:49.130Z,18.73
2018-02-06T17:35:17.505Z,19.20
2018-02-06T17:37:45.838Z,18.30
2018-02-06T17:40:14.094Z,20.47
2018-02-06T17:42:42.344Z,20.73
2018-02-06T17:45:10.617Z,19.77
2018-02-06T17:47:38.858Z,18.90
2018-02-06T17:50:07.113Z,20.83
2018-02-06T17:52:35.389Z,20.23
2018-02-06T17:55:03.659Z,19.10
2018-02-06T17:57:31.890Z,20.43
2018-02-06T18:00:00.270Z,19.67
2018-02-06T18:02:28.502Z,18.80
2018-02-06T18:04:56.749Z,20.47
2018-02-06T18:07:25.301Z,20.40
2018-02-06T18:09:53.545Z,19.60
2018-02-06T18:12:21.798Z,20.30
2018-02-06T18:14:50.074Z,19.73
2018-02-06T18:17:19.085Z,19.60
2018-02-06T18:19:48.362Z,20.30
2018-02-06T18:22:17.482Z,19.17
2018-02-06T18:24:46.050Z,20.77
2018-02-06T18:27:15.069Z,19.97
2018-02-06T18:29:45.574Z,28.03
2018-02-06T18:32:14.594Z,26.87
2018-02-06T18:34:42.918Z,24.23
2018-02-06T18:37:11.210Z,22.00
2018-02-06T18:39:39.461Z,20.50
2018-02-06T18:42:07.750Z,21.90
2018-02-06T18:44:36.234Z,21.60
2018-02-06T18:47:04.538Z,21.87
2018-02-06T18:49:33.554Z,21.70
2018-02-06T18:52:01.938Z,21.60
2018-02-06T18:54:30.185Z,21.33
2018-02-06T18:56:58.429Z,21.83
2018-02-06T18:59:26.697Z,21.57
2018-02-06T19:01:54.941Z,21.40
2018-02-06T19:04:23.193Z,21.33
2018-02-06T19:06:52.535Z,22.20
2018-02-06T19:09:20.837Z,22.07
2018-02-06T19:11:49.222Z,21.00
2018-02-06T19:14:18.553Z,22.20
2018-02-06T19:16:47.821Z,20.80
2018-02-06T19:19:16.401Z,21.90
2018-02-06T19:21:44.650Z,19.87
2018-02-06T19:24:12.948Z,21.50
2018-02-06T19:26:41.458Z,20.80
2018-02-06T19:29:10.129Z,23.50
2018-02-06T19:31:38.507Z,20.93
2018-02-06T19:34:06.922Z,20.67
2018-02-06T19:36:36.109Z,20.60
2018-02-06T19:39:05.517Z,21.10
2018-02-06T19:41:33.967Z,19.97
2018-02-06T19:44:02.274Z,20.80
2018-02-06T19:46:32.097Z,23.33
2018-02-06T19:49:01.252Z,21.67
2018-02-06T19:51:29.594Z,20.93
2018-02-06T19:53:59.240Z,21.80
2018-02-06T19:56:27.476Z,21.13
2018-02-06T19:58:56.723Z,22.00
2018-02-06T20:01:25.080Z,22.37
2018-02-06T20:03:54.244Z,22.37
2018-02-06T20:06:22.498Z,21.60
2018-02-06T20:08:50.798Z,21.77
2018-02-06T20:11:19.217Z,21.23
2018-02-06T20:13:47.679Z,21.90
2018-02-06T20:16:15.947Z,23.47
2018-02-06T20:18:44.317Z,22.37
2018-02-06T20:21:12.606Z,21.80
2018-02-06T20:23:41.394Z,22.10
2018-02-06T20:26:09.693Z,21.47
2018-02-06T20:28:37.954Z,21.30
2018-02-06T20:31:06.197Z,20.57
2018-02-06T20:33:34.447Z,20.67
2018-02-06T20:36:02.854Z,20.80
2018-02-06T20:38:31.118Z,22.27
2018-02-06T20:40:59.365Z,20.93
2018-02-06T20:43:27.901Z,21.17
2018-02-06T20:45:56.149Z,21.53
2018-02-06T20:48:24.462Z,21.47
2018-02-06T20:50:52.733Z,22.63
2018-02-06T20:53:20.982Z,21.87
2018-02-06T20:55:49.230Z,21.10
2018-02-06T20:58:17.870Z,20.97
2018-02-06T21:00:46.122Z,21.33
2018-02-06T21:03:14.365Z,21.00
2018-02-06T21:05:42.993Z,20.50
2018-02-06T21:08:11.233Z,21.87
2018-02-06T21:10:39.492Z,21.53
2018-02-06T21:13:08.522Z,20.00
2018-02-06T21:15:36.773Z,22.60
2018-02-06T21:18:05.798Z,21.00
2018-02-06T21:20:34.194Z,20.30
2018-02-06T21:23:02.449Z,20.63
2018-02-06T21:25:31.186Z,22.90
2018-02-06T21:27:59.458Z,21.30
2018-02-06T21:30:27.718Z,20.43
2018-02-06T21:32:55.962Z,22.80
2018-02-06T21:35:24.246Z,20.47
2018-02-06T21:37:52.489Z,21.27
2018-02-06T21:40:21.509Z,22.30
2018-02-06T21:42:50.233Z,21.60
2018-02-06T21:45:18.474Z,22.07
2018-02-06T21:47:46.730Z,22.47
2018-02-06T21:50:15.009Z,22.33
2018-02-06T21:52:44.030Z,22.20
2018-02-06T21:55:12.346Z,22.27
2018-02-06T21:57:40.622Z,22.90
2018-02-06T22:00:08.990Z,22.10
2018-02-06T22:02:37.217Z,24.13
2018-02-06T22:05:06.553Z,28.10
2018-02-06T22:07:34.798Z,31.80
2018-02-06T22:10:03.057Z,27.90
2018-02-06T22:12:31.313Z,28.17
2018-02-06T22:14:59.572Z,27.63
2018-02-06T22:17:27.813Z,25.10
2018-02-06T22:19:56.198Z,25.13
2018-02-06T22:22:24.446Z,23.90
2018-02-06T22:24:52.697Z,24.37
2018-02-06T22:27:21.235Z,23.63
2018-02-06T22:29:49.481Z,23.93
2018-02-06T22:32:17.735Z,23.00
2018-02-06T22:34:46.006Z,23.37
2018-02-06T22:37:14.257Z,22.40
2018-02-06T22:39:42.509Z,21.03
2018-02-06T22:42:11.549Z,21.87
2018-02-06T22:44:39.802Z,21.77
2018-02-06T22:47:08.045Z,21.50
2018-02-06T22:49:37.324Z,22.97
2018-02-06T22:52:05.573Z,22.63
2018-02-06T22:54:33.809Z,21.87
2018-02-06T22:57:02.086Z,23.40
2018-02-06T22:59:30.333Z,22.97
2018-02-06T23:01:58.580Z,21.63
2018-02-06T23:04:26.854Z,23.57
2018-02-06T23:06:55.097Z,22.83
2018-02-06T23:09:23.349Z,25.00
2018-02-06T23:11:51.890Z,30.63
2018-02-06T23:14:20.481Z,23.43
2018-02-06T23:16:48.730Z,21.63
2018-02-06T23:19:16.997Z,23.20
2018-02-06T23:21:45.374Z,23.20
2018-02-06T23:24:13.622Z,24.03
2018-02-06T23:26:41.902Z,23.10
2018-02-06T23:29:10.601Z,22.70
2018-02-06T23:31:40.057Z,23.10
2018-02-06T23:34:08.524Z,23.53
2018-02-06T23:36:36.850Z,23.07
2018-02-06T23:39:05.870Z,23.80
2018-02-06T23:41:34.145Z,23.93
2018-02-06T23:44:02.394Z,21.97
2018-02-06T23:46:30.645Z,23.27
2018-02-06T23:48:59.174Z,22.07
2018-02-06T23:51:27.414Z,22.80
2018-02-06T23:53:55.665Z,22.13
2018-02-06T23:56:24.124Z,23.97
2018-02-06T23:58:52.366Z,23.43
